sensor_id;sensor_type;location;lat;lon;timestamp;P1;durP1;ratioP1;P2;durP2;ratioP2
13163;SDS011;6647;53.688;10.746;2022-12-18T00:01:02;44.10;;;23.73;;
13163;SDS011;6647;53.688;10.746;2022-12-18T00:02:26;50.38;;;23.80;;
13163;SDS011;6647;53.688;10.746;2022-12-18T00:03:47;46.63;;;25.30;;
13163;SDS011;6647;53.688;10.746;2022-12-18T00:05:08;48.17;;;24.30;;
13163;SDS011;6647;53.688;10.746;2022-12-18T00:06:29;49.22;;;24.05;;
13163;SDS011;6647;53.688;10.746;2022-12-18T00:07:50;51.30;;;24.80;;
13163;SDS011;6647;53.688;10.746;2022-12-18T00:09:11;46.33;;;24.52;;
13163;SDS011;6647;53.688;10.746;2022-12-18T00:10:32;48.33;;;23.85;;
13163;SDS011;6647;53.688;10.746;2022-12-18T00:11:53;41.83;;;23.45;;
13163;SDS011;6647;53.688;10.746;2022-12-18T00:13:13;42.58;;;23.95;;
13163;SDS011;6647;53.688;10.746;2022-12-18T00:14:34;42.53;;;24.30;;
13163;SDS011;6647;53.688;10.746;2022-12-18T00:15:55;39.53;;;23.40;;
13163;SDS011;6647;53.688;10.746;2022-12-18T00:17:22;48.60;;;23.63;;
13163;SDS011;6647;53.688;10.746;2022-12-18T00:18:43;51.63;;;24.63;;
13163;SDS011;6647;53.688;10.746;2022-12-18T00:20:05;52.88;;;24.83;;
13163;SDS011;6647;53.688;10.746;2022-12-18T00:21:26;51.67;;;24.45;;
13163;SDS011;6647;53.688;10.746;2022-12-18T00:22:48;42.78;;;24.40;;
13163;SDS011;6647;53.688;10.746;2022-12-18T00:24:09;46.25;;;24.73;;
13163;SDS011;6647;53.688;10.746;2022-12-18T00:25:34;50.30;;;25.00;;
13163;SDS011;6647;53.688;10.746;2022-12-18T00:26:56;43.47;;;26.10;;
13163;SDS011;6647;53.688;10.746;2022-12-18T00:28:17;53.30;;;25.85;;
13163;SDS011;6647;53.688;10.746;2022-12-18T00:29:38;45.38;;;23.27;;
13163;SDS011;6647;53.688;10.746;2022-12-18T00:31:08;46.95;;;25.15;;
13163;SDS011;6647;53.688;10.746;2022-12-18T00:32:32;46.47;;;24.25;;
13163;SDS011;6647;53.688;10.746;2022-12-18T00:33:53;50.45;;;27.00;;
13163;SDS011;6647;53.688;10.746;2022-12-18T00:35:15;42.15;;;24.27;;
13163;SDS011;6647;53.688;10.746;2022-12-18T00:36:37;45.92;;;24.90;;
13163;SDS011;6647;53.688;10.746;2022-12-18T00:37:59;51.03;;;26.63;;
13163;SDS011;6647;53.688;10.746;2022-12-18T00:39:19;51.50;;;25.33;;
13163;SDS011;6647;53.688;10.746;2022-12-18T00:40:41;48.03;;;24.98;;
13163;SDS011;6647;53.688;10.746;2022-12-18T00:42:02;49.40;;;26.48;;
13163;SDS011;6647;53.688;10.746;2022-12-18T00:43:41;47.95;;;24.20;;
13163;SDS011;6647;53.688;10.746;2022-12-18T00:45:02;44.50;;;23.60;;
13163;SDS011;6647;53.688;10.746;2022-12-18T00:46:23;45.30;;;22.38;;
13163;SDS011;6647;53.688;10.746;2022-12-18T00:47:44;49.38;;;26.27;;
13163;SDS011;6647;53.688;10.746;2022-12-18T00:49:05;52.38;;;25.63;;
13163;SDS011;6647;53.688;10.746;2022-12-18T00:50:26;48.63;;;25.20;;
13163;SDS011;6647;53.688;10.746;2022-12-18T00:51:47;52.67;;;26.23;;
13163;SDS011;6647;53.688;10.746;2022-12-18T00:53:08;42.67;;;25.15;;
13163;SDS011;6647;53.688;10.746;2022-12-18T00:54:29;48.15;;;24.40;;
13163;SDS011;6647;53.688;10.746;2022-12-18T00:55:50;44.80;;;24.27;;
13163;SDS011;6647;53.688;10.746;2022-12-18T00:57:11;47.58;;;24.13;;
13163;SDS011;6647;53.688;10.746;2022-12-18T00:58:32;43.95;;;24.75;;
13163;SDS011;6647;53.688;10.746;2022-12-18T00:59:52;48.53;;;25.33;;
13163;SDS011;6647;53.688;10.746;2022-12-18T01:01:13;52.22;;;26.35;;
13163;SDS011;6647;53.688;10.746;2022-12-18T01:02:35;47.08;;;24.98;;
13163;SDS011;6647;53.688;10.746;2022-12-18T01:03:55;48.22;;;24.90;;
13163;SDS011;6647;53.688;10.746;2022-12-18T01:05:17;47.45;;;24.80;;
13163;SDS011;6647;53.688;10.746;2022-12-18T01:06:38;44.25;;;23.00;;
13163;SDS011;6647;53.688;10.746;2022-12-18T01:07:59;54.17;;;26.55;;
13163;SDS011;6647;53.688;10.746;2022-12-18T01:09:19;45.35;;;25.45;;
13163;SDS011;6647;53.688;10.746;2022-12-18T01:10:40;41.33;;;24.08;;
13163;SDS011;6647;53.688;10.746;2022-12-18T01:12:01;47.25;;;24.17;;
13163;SDS011;6647;53.688;10.746;2022-12-18T01:13:22;45.25;;;23.42;;
13163;SDS011;6647;53.688;10.746;2022-12-18T01:14:43;46.92;;;25.33;;
13163;SDS011;6647;53.688;10.746;2022-12-18T01:16:04;41.28;;;24.15;;
13163;SDS011;6647;53.688;10.746;2022-12-18T01:17:26;50.47;;;23.80;;
13163;SDS011;6647;53.688;10.746;2022-12-18T01:18:47;40.83;;;23.98;;
13163;SDS011;6647;53.688;10.746;2022-12-18T01:20:11;43.60;;;23.50;;
13163;SDS011;6647;53.688;10.746;2022-12-18T01:21:32;41.78;;;22.73;;
13163;SDS011;6647;53.688;10.746;2022-12-18T01:22:54;45.53;;;24.40;;
13163;SDS011;6647;53.688;10.746;2022-12-18T01:24:14;55.95;;;26.17;;
13163;SDS011;6647;53.688;10.746;2022-12-18T01:25:35;50.17;;;24.70;;
13163;SDS011;6647;53.688;10.746;2022-12-18T01:26:57;42.95;;;23.05;;
13163;SDS011;6647;53.688;10.746;2022-12-18T01:28:19;47.33;;;26.10;;
13163;SDS011;6647;53.688;10.746;2022-12-18T01:29:40;43.83;;;23.15;;
13163;SDS011;6647;53.688;10.746;2022-12-18T01:32:38;49.17;;;24.45;;
13163;SDS011;6647;53.688;10.746;2022-12-18T01:34:03;42.97;;;24.70;;
13163;SDS011;6647;53.688;10.746;2022-12-18T01:35:25;42.50;;;23.13;;
13163;SDS011;6647;53.688;10.746;2022-12-18T01:36:46;44.60;;;25.05;;
13163;SDS011;6647;53.688;10.746;2022-12-18T01:38:07;57.13;;;26.27;;
13163;SDS011;6647;53.688;10.746;2022-12-18T01:39:28;42.42;;;23.60;;
13163;SDS011;6647;53.688;10.746;2022-12-18T01:40:49;48.63;;;23.80;;
13163;SDS011;6647;53.688;10.746;2022-12-18T01:42:17;47.38;;;24.52;;
13163;SDS011;6647;53.688;10.746;2022-12-18T01:43:41;47.05;;;25.48;;
13163;SDS011;6647;53.688;10.746;2022-12-18T01:46:32;54.63;;;24.67;;
13163;SDS011;6647;53.688;10.746;2022-12-18T01:48:03;51.50;;;25.95;;
13163;SDS011;6647;53.688;10.746;2022-12-18T01:49:26;49.80;;;24.52;;
13163;SDS011;6647;53.688;10.746;2022-12-18T01:50:47;45.85;;;23.80;;
13163;SDS011;6647;53.688;10.746;2022-12-18T01:52:10;44.30;;;23.10;;
13163;SDS011;6647;53.688;10.746;2022-12-18T01:53:31;44.85;;;24.83;;
13163;SDS011;6647;53.688;10.746;2022-12-18T01:54:52;48.17;;;25.08;;
13163;SDS011;6647;53.688;10.746;2022-12-18T01:56:15;42.47;;;24.13;;
13163;SDS011;6647;53.688;10.746;2022-12-18T01:57:38;45.47;;;23.60;;
13163;SDS011;6647;53.688;10.746;2022-12-18T01:59:00;49.78;;;25.25;;
13163;SDS011;6647;53.688;10.746;2022-12-18T02:00:25;48.03;;;23.83;;
13163;SDS011;6647;53.688;10.746;2022-12-18T02:01:47;47.35;;;23.83;;
13163;SDS011;6647;53.688;10.746;2022-12-18T02:03:08;45.72;;;23.73;;
13163;SDS011;6647;53.688;10.746;2022-12-18T02:04:29;49.45;;;24.92;;
13163;SDS011;6647;53.688;10.746;2022-12-18T02:08:09;50.90;;;24.17;;
13163;SDS011;6647;53.688;10.746;2022-12-18T02:10:51;45.08;;;24.40;;
13163;SDS011;6647;53.688;10.746;2022-12-18T02:12:27;53.92;;;24.35;;
13163;SDS011;6647;53.688;10.746;2022-12-18T02:14:10;49.72;;;24.63;;
13163;SDS011;6647;53.688;10.746;2022-12-18T02:16:06;45.97;;;23.25;;
13163;SDS011;6647;53.688;10.746;2022-12-18T02:17:54;47.78;;;24.55;;
13163;SDS011;6647;53.688;10.746;2022-12-18T02:19:41;46.60;;;25.00;;
13163;SDS011;6647;53.688;10.746;2022-12-18T02:21:04;43.28;;;21.88;;
13163;SDS011;6647;53.688;10.746;2022-12-18T02:24:33;44.95;;;23.80;;
13163;SDS011;6647;53.688;10.746;2022-12-18T02:27:38;47.53;;;21.63;;
13163;SDS011;6647;53.688;10.746;2022-12-18T02:29:12;45.75;;;23.85;;
13163;SDS011;6647;53.688;10.746;2022-12-18T02:30:36;45.17;;;23.20;;
13163;SDS011;6647;53.688;10.746;2022-12-18T02:31:59;43.38;;;22.52;;
13163;SDS011;6647;53.688;10.746;2022-12-18T02:33:22;48.40;;;23.42;;
13163;SDS011;6647;53.688;10.746;2022-12-18T02:34:45;43.40;;;23.35;;
13163;SDS011;6647;53.688;10.746;2022-12-18T02:36:08;44.33;;;22.70;;
13163;SDS011;6647;53.688;10.746;2022-12-18T02:37:31;49.85;;;23.98;;
13163;SDS011;6647;53.688;10.746;2022-12-18T02:38:54;50.80;;;23.70;;
13163;SDS011;6647;53.688;10.746;2022-12-18T02:40:16;44.70;;;23.33;;
13163;SDS011;6647;53.688;10.746;2022-12-18T02:41:38;47.60;;;24.60;;
13163;SDS011;6647;53.688;10.746;2022-12-18T02:43:12;46.88;;;24.55;;
13163;SDS011;6647;53.688;10.746;2022-12-18T02:44:41;49.83;;;24.35;;
13163;SDS011;6647;53.688;10.746;2022-12-18T02:47:52;54.03;;;25.88;;
13163;SDS011;6647;53.688;10.746;2022-12-18T02:49:24;54.58;;;24.58;;
13163;SDS011;6647;53.688;10.746;2022-12-18T02:50:59;51.72;;;24.58;;
13163;SDS011;6647;53.688;10.746;2022-12-18T02:54:26;45.45;;;23.45;;
13163;SDS011;6647;53.688;10.746;2022-12-18T02:56:06;49.15;;;24.17;;
13163;SDS011;6647;53.688;10.746;2022-12-18T02:57:46;48.15;;;22.52;;
13163;SDS011;6647;53.688;10.746;2022-12-18T02:59:15;47.28;;;22.52;;
13163;SDS011;6647;53.688;10.746;2022-12-18T03:00:46;41.65;;;23.45;;
13163;SDS011;6647;53.688;10.746;2022-12-18T03:03:51;52.75;;;26.10;;
13163;SDS011;6647;53.688;10.746;2022-12-18T03:05:47;41.00;;;21.20;;
13163;SDS011;6647;53.688;10.746;2022-12-18T03:07:11;45.47;;;22.60;;
13163;SDS011;6647;53.688;10.746;2022-12-18T03:08:47;45.72;;;22.20;;
13163;SDS011;6647;53.688;10.746;2022-12-18T03:10:13;47.72;;;24.10;;
13163;SDS011;6647;53.688;10.746;2022-12-18T03:11:38;53.00;;;23.23;;
13163;SDS011;6647;53.688;10.746;2022-12-18T03:13:26;43.47;;;22.80;;
13163;SDS011;6647;53.688;10.746;2022-12-18T03:16:39;42.90;;;22.10;;
13163;SDS011;6647;53.688;10.746;2022-12-18T03:18:07;42.85;;;21.60;;
13163;SDS011;6647;53.688;10.746;2022-12-18T03:19:33;48.97;;;22.33;;
13163;SDS011;6647;53.688;10.746;2022-12-18T03:20:55;45.05;;;22.83;;
13163;SDS011;6647;53.688;10.746;2022-12-18T03:22:19;48.83;;;25.02;;
13163;SDS011;6647;53.688;10.746;2022-12-18T03:23:42;56.58;;;23.15;;
13163;SDS011;6647;53.688;10.746;2022-12-18T03:25:07;40.45;;;20.63;;
13163;SDS011;6647;53.688;10.746;2022-12-18T03:26:33;47.83;;;22.05;;
13163;SDS011;6647;53.688;10.746;2022-12-18T03:27:56;41.65;;;22.02;;
13163;SDS011;6647;53.688;10.746;2022-12-18T03:29:21;50.88;;;22.60;;
13163;SDS011;6647;53.688;10.746;2022-12-18T03:30:47;38.20;;;21.80;;
13163;SDS011;6647;53.688;10.746;2022-12-18T03:32:15;42.63;;;22.30;;
13163;SDS011;6647;53.688;10.746;2022-12-18T03:33:51;49.78;;;22.73;;
13163;SDS011;6647;53.688;10.746;2022-12-18T03:35:22;45.15;;;22.95;;
13163;SDS011;6647;53.688;10.746;2022-12-18T03:36:46;51.65;;;25.70;;
13163;SDS011;6647;53.688;10.746;2022-12-18T03:38:08;47.42;;;23.85;;
13163;SDS011;6647;53.688;10.746;2022-12-18T03:39:30;52.70;;;23.20;;
13163;SDS011;6647;53.688;10.746;2022-12-18T03:42:43;46.72;;;23.58;;
13163;SDS011;6647;53.688;10.746;2022-12-18T03:44:18;48.10;;;21.63;;
13163;SDS011;6647;53.688;10.746;2022-12-18T03:46:00;48.47;;;23.33;;
13163;SDS011;6647;53.688;10.746;2022-12-18T03:47:32;51.50;;;24.15;;
13163;SDS011;6647;53.688;10.746;2022-12-18T03:49:08;53.90;;;25.10;;
13163;SDS011;6647;53.688;10.746;2022-12-18T03:52:17;46.03;;;23.33;;
13163;SDS011;6647;53.688;10.746;2022-12-18T03:53:46;54.55;;;23.23;;
13163;SDS011;6647;53.688;10.746;2022-12-18T03:55:16;52.00;;;24.10;;
13163;SDS011;6647;53.688;10.746;2022-12-18T03:56:44;52.25;;;21.08;;
13163;SDS011;6647;53.688;10.746;2022-12-18T03:58:08;50.35;;;23.55;;
13163;SDS011;6647;53.688;10.746;2022-12-18T03:59:31;52.28;;;23.48;;
13163;SDS011;6647;53.688;10.746;2022-12-18T04:00:55;47.67;;;23.05;;
13163;SDS011;6647;53.688;10.746;2022-12-18T04:02:20;50.38;;;22.92;;
13163;SDS011;6647;53.688;10.746;2022-12-18T04:03:43;48.38;;;22.35;;
13163;SDS011;6647;53.688;10.746;2022-12-18T04:05:06;46.17;;;23.95;;
13163;SDS011;6647;53.688;10.746;2022-12-18T04:06:29;40.10;;;21.83;;
13163;SDS011;6647;53.688;10.746;2022-12-18T04:07:50;46.40;;;22.27;;
13163;SDS011;6647;53.688;10.746;2022-12-18T04:09:14;51.78;;;23.65;;
13163;SDS011;6647;53.688;10.746;2022-12-18T04:10:35;50.28;;;23.70;;
13163;SDS011;6647;53.688;10.746;2022-12-18T04:11:56;52.03;;;23.45;;
13163;SDS011;6647;53.688;10.746;2022-12-18T04:13:23;52.33;;;24.15;;
13163;SDS011;6647;53.688;10.746;2022-12-18T04:14:47;48.30;;;22.42;;
13163;SDS011;6647;53.688;10.746;2022-12-18T04:16:08;45.80;;;22.23;;
13163;SDS011;6647;53.688;10.746;2022-12-18T04:17:29;46.83;;;21.85;;
13163;SDS011;6647;53.688;10.746;2022-12-18T04:18:50;50.58;;;24.70;;
13163;SDS011;6647;53.688;10.746;2022-12-18T04:20:12;56.28;;;24.98;;
13163;SDS011;6647;53.688;10.746;2022-12-18T04:21:33;47.72;;;23.80;;
13163;SDS011;6647;53.688;10.746;2022-12-18T04:22:54;47.50;;;24.48;;
13163;SDS011;6647;53.688;10.746;2022-12-18T04:24:15;58.10;;;23.67;;
13163;SDS011;6647;53.688;10.746;2022-12-18T04:25:36;52.53;;;23.80;;
13163;SDS011;6647;53.688;10.746;2022-12-18T04:26:57;48.30;;;23.58;;
13163;SDS011;6647;53.688;10.746;2022-12-18T04:28:17;52.05;;;23.50;;
13163;SDS011;6647;53.688;10.746;2022-12-18T04:29:38;49.92;;;22.38;;
13163;SDS011;6647;53.688;10.746;2022-12-18T04:30:59;47.03;;;22.60;;
13163;SDS011;6647;53.688;10.746;2022-12-18T04:32:20;55.10;;;23.70;;
13163;SDS011;6647;53.688;10.746;2022-12-18T04:33:41;53.40;;;23.40;;
13163;SDS011;6647;53.688;10.746;2022-12-18T04:35:02;48.75;;;22.10;;
13163;SDS011;6647;53.688;10.746;2022-12-18T04:36:25;53.90;;;23.83;;
13163;SDS011;6647;53.688;10.746;2022-12-18T04:37:46;51.95;;;22.02;;
13163;SDS011;6647;53.688;10.746;2022-12-18T04:39:07;47.20;;;21.80;;
13163;SDS011;6647;53.688;10.746;2022-12-18T04:40:28;53.67;;;24.23;;
13163;SDS011;6647;53.688;10.746;2022-12-18T04:41:48;45.78;;;21.80;;
13163;SDS011;6647;53.688;10.746;2022-12-18T04:43:09;46.47;;;21.50;;
13163;SDS011;6647;53.688;10.746;2022-12-18T04:44:30;54.20;;;23.52;;
13163;SDS011;6647;53.688;10.746;2022-12-18T04:45:51;54.10;;;22.02;;
13163;SDS011;6647;53.688;10.746;2022-12-18T04:47:12;46.92;;;22.27;;
13163;SDS011;6647;53.688;10.746;2022-12-18T04:48:33;45.97;;;20.75;;
13163;SDS011;6647;53.688;10.746;2022-12-18T04:49:54;49.53;;;21.83;;
13163;SDS011;6647;53.688;10.746;2022-12-18T04:51:15;43.95;;;21.98;;
13163;SDS011;6647;53.688;10.746;2022-12-18T04:52:36;51.67;;;21.88;;
13163;SDS011;6647;53.688;10.746;2022-12-18T04:53:57;48.92;;;23.10;;
13163;SDS011;6647;53.688;10.746;2022-12-18T04:55:18;56.00;;;22.23;;
13163;SDS011;6647;53.688;10.746;2022-12-18T04:56:39;48.80;;;22.05;;
13163;SDS011;6647;53.688;10.746;2022-12-18T04:58:00;52.45;;;23.35;;
13163;SDS011;6647;53.688;10.746;2022-12-18T04:59:21;50.42;;;22.02;;
13163;SDS011;6647;53.688;10.746;2022-12-18T05:00:41;55.75;;;21.70;;
13163;SDS011;6647;53.688;10.746;2022-12-18T05:02:03;51.50;;;21.90;;
13163;SDS011;6647;53.688;10.746;2022-12-18T05:03:24;56.25;;;23.00;;
13163;SDS011;6647;53.688;10.746;2022-12-18T05:04:45;51.58;;;21.88;;
13163;SDS011;6647;53.688;10.746;2022-12-18T05:06:06;50.33;;;21.80;;
13163;SDS011;6647;53.688;10.746;2022-12-18T05:07:28;48.05;;;23.23;;
13163;SDS011;6647;53.688;10.746;2022-12-18T05:08:48;44.90;;;22.38;;
13163;SDS011;6647;53.688;10.746;2022-12-18T05:10:09;48.20;;;20.65;;
13163;SDS011;6647;53.688;10.746;2022-12-18T05:11:30;49.83;;;21.00;;
13163;SDS011;6647;53.688;10.746;2022-12-18T05:12:51;54.35;;;22.60;;
13163;SDS011;6647;53.688;10.746;2022-12-18T05:14:18;43.88;;;19.33;;
13163;SDS011;6647;53.688;10.746;2022-12-18T05:15:39;50.47;;;21.80;;
13163;SDS011;6647;53.688;10.746;2022-12-18T05:17:01;51.58;;;21.55;;
13163;SDS011;6647;53.688;10.746;2022-12-18T05:18:23;48.60;;;22.75;;
13163;SDS011;6647;53.688;10.746;2022-12-18T05:19:44;57.95;;;21.40;;
13163;SDS011;6647;53.688;10.746;2022-12-18T05:21:05;53.58;;;22.17;;
13163;SDS011;6647;53.688;10.746;2022-12-18T05:22:26;45.90;;;20.17;;
13163;SDS011;6647;53.688;10.746;2022-12-18T05:23:47;50.63;;;21.42;;
13163;SDS011;6647;53.688;10.746;2022-12-18T05:25:08;55.10;;;22.10;;
13163;SDS011;6647;53.688;10.746;2022-12-18T05:26:28;51.35;;;21.95;;
13163;SDS011;6647;53.688;10.746;2022-12-18T05:27:49;46.85;;;20.33;;
13163;SDS011;6647;53.688;10.746;2022-12-18T05:29:10;49.85;;;20.52;;
13163;SDS011;6647;53.688;10.746;2022-12-18T05:30:32;49.40;;;22.10;;
13163;SDS011;6647;53.688;10.746;2022-12-18T05:31:53;44.17;;;20.23;;
13163;SDS011;6647;53.688;10.746;2022-12-18T05:33:14;45.17;;;20.00;;
13163;SDS011;6647;53.688;10.746;2022-12-18T05:34:35;47.15;;;19.67;;
13163;SDS011;6647;53.688;10.746;2022-12-18T05:35:57;56.95;;;20.77;;
13163;SDS011;6647;53.688;10.746;2022-12-18T05:37:19;54.80;;;21.92;;
13163;SDS011;6647;53.688;10.746;2022-12-18T05:38:41;56.63;;;21.65;;
13163;SDS011;6647;53.688;10.746;2022-12-18T05:40:03;43.10;;;19.63;;
13163;SDS011;6647;53.688;10.746;2022-12-18T05:41:24;48.13;;;20.63;;
13163;SDS011;6647;53.688;10.746;2022-12-18T05:42:45;53.50;;;19.80;;
13163;SDS011;6647;53.688;10.746;2022-12-18T05:44:06;50.47;;;20.60;;
13163;SDS011;6647;53.688;10.746;2022-12-18T05:45:27;43.72;;;20.42;;
13163;SDS011;6647;53.688;10.746;2022-12-18T05:46:47;51.22;;;22.70;;
13163;SDS011;6647;53.688;10.746;2022-12-18T05:48:09;46.20;;;19.60;;
13163;SDS011;6647;53.688;10.746;2022-12-18T05:49:30;50.08;;;20.52;;
13163;SDS011;6647;53.688;10.746;2022-12-18T05:50:51;52.42;;;20.33;;
13163;SDS011;6647;53.688;10.746;2022-12-18T05:52:11;49.92;;;20.58;;
13163;SDS011;6647;53.688;10.746;2022-12-18T05:53:32;50.22;;;20.38;;
13163;SDS011;6647;53.688;10.746;2022-12-18T05:54:54;49.67;;;21.52;;
13163;SDS011;6647;53.688;10.746;2022-12-18T05:56:16;53.97;;;18.83;;
13163;SDS011;6647;53.688;10.746;2022-12-18T05:57:40;47.28;;;20.13;;
13163;SDS011;6647;53.688;10.746;2022-12-18T05:59:00;48.40;;;20.10;;
13163;SDS011;6647;53.688;10.746;2022-12-18T06:00:21;53.28;;;20.70;;
13163;SDS011;6647;53.688;10.746;2022-12-18T06:01:42;56.50;;;21.63;;
13163;SDS011;6647;53.688;10.746;2022-12-18T06:03:03;46.80;;;20.33;;
13163;SDS011;6647;53.688;10.746;2022-12-18T06:04:24;62.30;;;21.67;;
13163;SDS011;6647;53.688;10.746;2022-12-18T06:05:51;40.40;;;20.90;;
13163;SDS011;6647;53.688;10.746;2022-12-18T06:07:12;52.53;;;20.83;;
13163;SDS011;6647;53.688;10.746;2022-12-18T06:08:33;43.17;;;19.48;;
13163;SDS011;6647;53.688;10.746;2022-12-18T06:09:53;51.30;;;20.85;;
13163;SDS011;6647;53.688;10.746;2022-12-18T06:11:18;50.13;;;20.60;;
13163;SDS011;6647;53.688;10.746;2022-12-18T06:12:41;49.30;;;19.08;;
13163;SDS011;6647;53.688;10.746;2022-12-18T06:14:02;48.28;;;19.15;;
13163;SDS011;6647;53.688;10.746;2022-12-18T06:15:24;45.90;;;22.60;;
13163;SDS011;6647;53.688;10.746;2022-12-18T06:16:45;52.08;;;21.60;;
13163;SDS011;6647;53.688;10.746;2022-12-18T06:18:06;54.42;;;21.23;;
13163;SDS011;6647;53.688;10.746;2022-12-18T06:19:27;51.22;;;20.33;;
13163;SDS011;6647;53.688;10.746;2022-12-18T06:20:57;43.70;;;20.05;;
13163;SDS011;6647;53.688;10.746;2022-12-18T06:22:19;45.90;;;19.20;;
13163;SDS011;6647;53.688;10.746;2022-12-18T06:23:40;46.95;;;19.17;;
13163;SDS011;6647;53.688;10.746;2022-12-18T06:25:02;49.50;;;19.20;;
13163;SDS011;6647;53.688;10.746;2022-12-18T06:26:23;49.33;;;21.60;;
13163;SDS011;6647;53.688;10.746;2022-12-18T06:27:46;53.03;;;19.98;;
13163;SDS011;6647;53.688;10.746;2022-12-18T06:29:07;41.80;;;17.48;;
13163;SDS011;6647;53.688;10.746;2022-12-18T06:30:28;55.15;;;22.02;;
13163;SDS011;6647;53.688;10.746;2022-12-18T06:31:49;48.55;;;20.15;;
13163;SDS011;6647;53.688;10.746;2022-12-18T06:33:10;50.13;;;19.25;;
13163;SDS011;6647;53.688;10.746;2022-12-18T06:34:31;51.92;;;22.63;;
13163;SDS011;6647;53.688;10.746;2022-12-18T06:35:52;49.28;;;18.33;;
13163;SDS011;6647;53.688;10.746;2022-12-18T06:37:13;46.88;;;19.85;;
13163;SDS011;6647;53.688;10.746;2022-12-18T06:38:35;48.15;;;18.98;;
13163;SDS011;6647;53.688;10.746;2022-12-18T06:39:57;46.17;;;21.60;;
13163;SDS011;6647;53.688;10.746;2022-12-18T06:41:19;55.05;;;19.88;;
13163;SDS011;6647;53.688;10.746;2022-12-18T06:42:41;62.45;;;19.40;;
13163;SDS011;6647;53.688;10.746;2022-12-18T06:44:02;52.70;;;19.15;;
13163;SDS011;6647;53.688;10.746;2022-12-18T06:45:23;47.75;;;17.65;;
13163;SDS011;6647;53.688;10.746;2022-12-18T06:46:44;44.20;;;18.30;;
13163;SDS011;6647;53.688;10.746;2022-12-18T06:48:05;49.08;;;20.05;;
13163;SDS011;6647;53.688;10.746;2022-12-18T06:49:26;44.35;;;19.30;;
13163;SDS011;6647;53.688;10.746;2022-12-18T06:50:47;45.40;;;18.45;;
13163;SDS011;6647;53.688;10.746;2022-12-18T06:52:08;54.05;;;20.30;;
13163;SDS011;6647;53.688;10.746;2022-12-18T06:53:29;51.50;;;18.67;;
13163;SDS011;6647;53.688;10.746;2022-12-18T06:54:50;49.30;;;18.25;;
13163;SDS011;6647;53.688;10.746;2022-12-18T06:56:11;50.28;;;19.80;;
13163;SDS011;6647;53.688;10.746;2022-12-18T06:57:32;54.53;;;20.92;;
13163;SDS011;6647;53.688;10.746;2022-12-18T06:58:52;45.10;;;19.63;;
13163;SDS011;6647;53.688;10.746;2022-12-18T07:00:13;40.85;;;18.25;;
13163;SDS011;6647;53.688;10.746;2022-12-18T07:01:34;49.97;;;19.05;;
13163;SDS011;6647;53.688;10.746;2022-12-18T07:02:56;41.58;;;17.52;;
13163;SDS011;6647;53.688;10.746;2022-12-18T07:04:17;43.90;;;19.65;;
13163;SDS011;6647;53.688;10.746;2022-12-18T07:05:41;53.78;;;21.17;;
13163;SDS011;6647;53.688;10.746;2022-12-18T07:07:01;51.03;;;18.35;;
13163;SDS011;6647;53.688;10.746;2022-12-18T07:08:22;48.65;;;20.13;;
13163;SDS011;6647;53.688;10.746;2022-12-18T07:09:43;48.53;;;19.98;;
13163;SDS011;6647;53.688;10.746;2022-12-18T07:11:04;46.75;;;19.75;;
13163;SDS011;6647;53.688;10.746;2022-12-18T07:12:26;49.75;;;19.73;;
13163;SDS011;6647;53.688;10.746;2022-12-18T07:13:47;47.25;;;18.77;;
13163;SDS011;6647;53.688;10.746;2022-12-18T07:15:08;46.67;;;18.33;;
13163;SDS011;6647;53.688;10.746;2022-12-18T07:16:29;44.28;;;18.48;;
13163;SDS011;6647;53.688;10.746;2022-12-18T07:17:50;42.72;;;16.92;;
13163;SDS011;6647;53.688;10.746;2022-12-18T07:19:11;45.47;;;17.58;;
13163;SDS011;6647;53.688;10.746;2022-12-18T07:20:32;50.45;;;20.15;;
13163;SDS011;6647;53.688;10.746;2022-12-18T07:21:53;45.90;;;18.63;;
13163;SDS011;6647;53.688;10.746;2022-12-18T07:23:14;42.78;;;19.38;;
13163;SDS011;6647;53.688;10.746;2022-12-18T07:24:35;46.53;;;20.08;;
13163;SDS011;6647;53.688;10.746;2022-12-18T07:25:59;50.13;;;17.77;;
13163;SDS011;6647;53.688;10.746;2022-12-18T07:27:22;54.00;;;18.23;;
13163;SDS011;6647;53.688;10.746;2022-12-18T07:28:43;42.92;;;18.55;;
13163;SDS011;6647;53.688;10.746;2022-12-18T07:30:04;46.97;;;18.00;;
13163;SDS011;6647;53.688;10.746;2022-12-18T07:31:26;45.05;;;20.38;;
13163;SDS011;6647;53.688;10.746;2022-12-18T07:32:47;44.60;;;17.92;;
13163;SDS011;6647;53.688;10.746;2022-12-18T07:34:11;47.45;;;18.30;;
13163;SDS011;6647;53.688;10.746;2022-12-18T07:35:33;47.22;;;18.40;;
13163;SDS011;6647;53.688;10.746;2022-12-18T07:36:54;47.92;;;17.70;;
13163;SDS011;6647;53.688;10.746;2022-12-18T07:38:15;54.03;;;19.70;;
13163;SDS011;6647;53.688;10.746;2022-12-18T07:39:35;51.55;;;19.55;;
13163;SDS011;6647;53.688;10.746;2022-12-18T07:41:03;48.85;;;18.27;;
13163;SDS011;6647;53.688;10.746;2022-12-18T07:42:25;44.00;;;17.27;;
13163;SDS011;6647;53.688;10.746;2022-12-18T07:43:52;44.95;;;18.23;;
13163;SDS011;6647;53.688;10.746;2022-12-18T07:45:13;41.67;;;19.25;;
13163;SDS011;6647;53.688;10.746;2022-12-18T07:46:34;48.10;;;19.02;;
13163;SDS011;6647;53.688;10.746;2022-12-18T07:47:55;44.55;;;18.48;;
13163;SDS011;6647;53.688;10.746;2022-12-18T07:49:15;49.00;;;17.00;;
13163;SDS011;6647;53.688;10.746;2022-12-18T07:50:36;43.38;;;18.55;;
13163;SDS011;6647;53.688;10.746;2022-12-18T07:51:57;45.05;;;18.02;;
13163;SDS011;6647;53.688;10.746;2022-12-18T07:53:18;43.92;;;18.60;;
13163;SDS011;6647;53.688;10.746;2022-12-18T07:54:39;47.65;;;16.38;;
13163;SDS011;6647;53.688;10.746;2022-12-18T07:56:01;44.67;;;18.30;;
13163;SDS011;6647;53.688;10.746;2022-12-18T07:57:25;47.42;;;18.10;;
13163;SDS011;6647;53.688;10.746;2022-12-18T07:58:46;49.17;;;20.05;;
13163;SDS011;6647;53.688;10.746;2022-12-18T08:00:07;45.22;;;17.40;;
13163;SDS011;6647;53.688;10.746;2022-12-18T08:01:28;45.08;;;16.10;;
13163;SDS011;6647;53.688;10.746;2022-12-18T08:02:49;42.85;;;18.42;;
13163;SDS011;6647;53.688;10.746;2022-12-18T08:04:10;44.13;;;18.02;;
13163;SDS011;6647;53.688;10.746;2022-12-18T08:05:31;46.80;;;18.77;;
13163;SDS011;6647;53.688;10.746;2022-12-18T08:06:52;48.22;;;19.10;;
13163;SDS011;6647;53.688;10.746;2022-12-18T08:08:13;36.22;;;17.13;;
13163;SDS011;6647;53.688;10.746;2022-12-18T08:09:34;38.08;;;16.23;;
13163;SDS011;6647;53.688;10.746;2022-12-18T08:10:55;43.90;;;18.42;;
13163;SDS011;6647;53.688;10.746;2022-12-18T08:12:16;44.28;;;19.63;;
13163;SDS011;6647;53.688;10.746;2022-12-18T08:13:37;48.10;;;19.58;;
13163;SDS011;6647;53.688;10.746;2022-12-18T08:14:58;43.92;;;18.33;;
13163;SDS011;6647;53.688;10.746;2022-12-18T08:16:19;44.05;;;19.40;;
13163;SDS011;6647;53.688;10.746;2022-12-18T08:17:41;51.83;;;19.52;;
13163;SDS011;6647;53.688;10.746;2022-12-18T08:19:02;48.67;;;19.63;;
13163;SDS011;6647;53.688;10.746;2022-12-18T08:20:23;44.60;;;19.77;;
13163;SDS011;6647;53.688;10.746;2022-12-18T08:21:44;42.90;;;17.52;;
13163;SDS011;6647;53.688;10.746;2022-12-18T08:23:05;38.85;;;15.93;;
13163;SDS011;6647;53.688;10.746;2022-12-18T08:24:26;46.25;;;17.85;;
13163;SDS011;6647;53.688;10.746;2022-12-18T08:25:47;43.17;;;19.40;;
13163;SDS011;6647;53.688;10.746;2022-12-18T08:27:08;41.75;;;17.25;;